sensor_id;sensor_type;location;lat;lon;timestamp;pressure;altitude;pressure_sealevel;temperature;humidity
27980;BME280;15315;50.836;4.430;2023-08-21T00:03:22;101718.28;;;26.32;53.83
27980;BME280;15315;50.836;4.430;2023-08-21T00:13:22;101725.13;;;26.22;54.72
27980;BME280;15315;50.836;4.430;2023-08-21T00:23:22;101727.16;;;26.50;53.83
27980;BME280;15315;50.836;4.430;2023-08-21T00:33:23;101715.72;;;26.83;52.37
27980;BME280;15315;50.836;4.430;2023-08-21T00:43:23;101726.59;;;26.32;53.87
27980;BME280;15315;50.836;4.430;2023-08-21T00:53:23;101713.75;;;26.17;54.71
27980;BME280;15315;50.836;4.430;2023-08-21T01:03:24;101725.00;;;25.62;56.55
27980;BME280;15315;50.836;4.430;2023-08-21T01:13:41;101726.06;;;25.14;57.75
27980;BME280;15315;50.836;4.430;2023-08-21T01:23:44;101734.06;;;25.48;57.55
27980;BME280;15315;50.836;4.430;2023-08-21T01:33:48;101723.72;;;26.03;55.49
27980;BME280;15315;50.836;4.430;2023-08-21T01:43:51;101735.38;;;25.90;55.50
27980;BME280;15315;50.836;4.430;2023-08-21T01:53:51;101733.16;;;25.55;56.85
27980;BME280;15315;50.836;4.430;2023-08-21T02:03:51;101727.94;;;25.60;56.59
27980;BME280;15315;50.836;4.430;2023-08-21T02:13:51;101743.56;;;25.45;57.57
27980;BME280;15315;50.836;4.430;2023-08-21T02:23:52;101735.78;;;25.79;56.20
27980;BME280;15315;50.836;4.430;2023-08-21T02:33:52;101737.84;;;25.85;56.11
27980;BME280;15315;50.836;4.430;2023-08-21T02:43:52;101732.31;;;25.85;56.64
27980;BME280;15315;50.836;4.430;2023-08-21T02:53:53;101739.75;;;25.77;57.79
27980;BME280;15315;50.836;4.430;2023-08-21T03:03:53;101746.50;;;25.74;57.87
27980;BME280;15315;50.836;4.430;2023-08-21T03:13:53;101753.38;;;25.56;58.80
27980;BME280;15315;50.836;4.430;2023-08-21T03:23:57;101747.28;;;25.60;59.77
27980;BME280;15315;50.836;4.430;2023-08-21T03:33:59;101736.63;;;25.49;60.38
27980;BME280;15315;50.836;4.430;2023-08-21T03:43:59;101744.19;;;25.24;61.91
27980;BME280;15315;50.836;4.430;2023-08-21T03:53:59;101745.78;;;25.03;63.32
27980;BME280;15315;50.836;4.430;2023-08-21T04:03:59;101741.56;;;24.68;64.74
27980;BME280;15315;50.836;4.430;2023-08-21T04:14:00;101750.13;;;24.89;63.09
27980;BME280;15315;50.836;4.430;2023-08-21T04:24:00;101750.16;;;24.81;63.65
27980;BME280;15315;50.836;4.430;2023-08-21T04:34:01;101772.72;;;24.60;65.12
27980;BME280;15315;50.836;4.430;2023-08-21T04:44:01;101769.47;;;24.65;64.56
27980;BME280;15315;50.836;4.430;2023-08-21T04:54:03;101780.84;;;24.30;66.58
27980;BME280;15315;50.836;4.430;2023-08-21T05:04:03;101777.91;;;24.55;65.25
27980;BME280;15315;50.836;4.430;2023-08-21T05:14:03;101775.00;;;24.33;63.10
27980;BME280;15315;50.836;4.430;2023-08-21T05:24:04;101770.00;;;24.68;63.90
27980;BME280;15315;50.836;4.430;2023-08-21T05:34:04;101780.50;;;24.65;63.91
27980;BME280;15315;50.836;4.430;2023-08-21T05:44:04;101788.09;;;24.71;61.79
27980;BME280;15315;50.836;4.430;2023-08-21T05:54:05;101798.59;;;24.92;58.77
27980;BME280;15315;50.836;4.430;2023-08-21T06:04:05;101798.91;;;25.05;58.01
27980;BME280;15315;50.836;4.430;2023-08-21T06:14:05;101816.00;;;24.92;56.86
27980;BME280;15315;50.836;4.430;2023-08-21T06:24:05;101814.97;;;24.93;56.45
27980;BME280;15315;50.836;4.430;2023-08-21T06:34:06;101813.03;;;25.18;55.50
27980;BME280;15315;50.836;4.430;2023-08-21T06:44:06;101805.13;;;24.83;56.13
27980;BME280;15315;50.836;4.430;2023-08-21T06:54:06;101809.81;;;25.53;55.84
27980;BME280;15315;50.836;4.430;2023-08-21T07:04:07;101820.19;;;23.90;59.44
27980;BME280;15315;50.836;4.430;2023-08-21T07:14:07;101803.84;;;23.96;59.74
27980;BME280;15315;50.836;4.430;2023-08-21T07:24:08;101811.50;;;24.99;57.43
27980;BME280;15315;50.836;4.430;2023-08-21T07:34:08;101829.06;;;25.14;56.63
27980;BME280;15315;50.836;4.430;2023-08-21T07:44:09;101829.63;;;26.04;54.75
27980;BME280;15315;50.836;4.430;2023-08-21T07:54:09;101829.91;;;26.39;53.85
27980;BME280;15315;50.836;4.430;2023-08-21T08:04:09;101832.50;;;26.10;54.91
27980;BME280;15315;50.836;4.430;2023-08-21T08:14:11;101844.75;;;25.85;54.68
27980;BME280;15315;50.836;4.430;2023-08-21T08:24:11;101842.81;;;25.94;55.21
27980;BME280;15315;50.836;4.430;2023-08-21T08:34:12;101849.50;;;26.75;52.41
27980;BME280;15315;50.836;4.430;2023-08-21T08:44:12;101838.06;;;26.78;50.54
27980;BME280;15315;50.836;4.430;2023-08-21T08:54:15;101843.19;;;26.44;47.21
27980;BME280;15315;50.836;4.430;2023-08-21T09:04:16;101830.53;;;27.24;46.49
27980;BME280;15315;50.836;4.430;2023-08-21T09:14:16;101831.38;;;26.73;44.46
27980;BME280;15315;50.836;4.430;2023-08-21T09:24:25;101825.16;;;27.08;43.67
27980;BME280;15315;50.836;4.430;2023-08-21T09:34:25;101822.66;;;26.38;41.66
27980;BME280;15315;50.836;4.430;2023-08-21T09:44:43;101825.66;;;27.11;40.19
27980;BME280;15315;50.836;4.430;2023-08-21T09:54:43;101821.34;;;27.09;41.34
27980;BME280;15315;50.836;4.430;2023-08-21T10:04:43;101811.75;;;27.49;42.57
27980;BME280;15315;50.836;4.430;2023-08-21T10:14:45;101810.41;;;26.78;43.97
27980;BME280;15315;50.836;4.430;2023-08-21T10:24:45;101805.75;;;28.31;42.43
27980;BME280;15315;50.836;4.430;2023-08-21T10:34:51;101811.06;;;27.76;44.01
27980;BME280;15315;50.836;4.430;2023-08-21T10:44:54;101815.31;;;28.99;41.52
27980;BME280;15315;50.836;4.430;2023-08-21T10:55:00;101808.72;;;29.28;40.84
27980;BME280;15315;50.836;4.430;2023-08-21T11:05:00;101809.16;;;28.33;42.30
27980;BME280;15315;50.836;4.430;2023-08-21T11:15:01;101795.47;;;29.02;40.86
27980;BME280;15315;50.836;4.430;2023-08-21T11:25:02;101803.56;;;28.97;40.90
27980;BME280;15315;50.836;4.430;2023-08-21T11:35:04;101800.63;;;30.28;39.93
27980;BME280;15315;50.836;4.430;2023-08-21T11:45:04;101791.28;;;29.88;39.42
27980;BME280;15315;50.836;4.430;2023-08-21T11:55:08;101795.13;;;29.39;39.63
27980;BME280;15315;50.836;4.430;2023-08-21T12:05:13;101796.88;;;29.47;39.33
27980;BME280;15315;50.836;4.430;2023-08-21T12:15:14;101781.22;;;29.39;40.34
27980;BME280;15315;50.836;4.430;2023-08-21T12:25:14;101782.59;;;28.67;41.28
27980;BME280;15315;50.836;4.430;2023-08-21T12:35:16;101776.72;;;29.04;41.54
27980;BME280;15315;50.836;4.430;2023-08-21T12:45:16;101772.75;;;30.08;40.15
27980;BME280;15315;50.836;4.430;2023-08-21T12:55:17;101774.72;;;29.60;41.01
27980;BME280;15315;50.836;4.430;2023-08-21T13:05:17;101757.16;;;30.27;40.28
27980;BME280;15315;50.836;4.430;2023-08-21T13:15:17;101765.53;;;28.97;41.57
27980;BME280;15315;50.836;4.430;2023-08-21T13:25:18;101762.34;;;30.49;39.71
27980;BME280;15315;50.836;4.430;2023-08-21T13:35:18;101753.78;;;30.77;39.35
27980;BME280;15315;50.836;4.430;2023-08-21T13:45:22;101759.34;;;30.70;39.03
27980;BME280;15315;50.836;4.430;2023-08-21T13:55:23;101742.84;;;31.08;38.04
27980;BME280;15315;50.836;4.430;2023-08-21T14:05:23;101733.81;;;30.08;38.65
27980;BME280;15315;50.836;4.430;2023-08-21T14:15:23;101708.78;;;30.28;38.44
27980;BME280;15315;50.836;4.430;2023-08-21T14:25:23;101706.22;;;30.78;36.99
27980;BME280;15315;50.836;4.430;2023-08-21T14:35:24;101690.94;;;29.70;36.64
27980;BME280;15315;50.836;4.430;2023-08-21T14:45:24;101681.81;;;30.15;35.84
27980;BME280;15315;50.836;4.430;2023-08-21T14:55:24;101682.56;;;29.57;35.76
27980;BME280;15315;50.836;4.430;2023-08-21T15:05:25;101675.78;;;29.92;35.11
27980;BME280;15315;50.836;4.430;2023-08-21T15:15:25;101671.19;;;28.70;35.99
27980;BME280;15315;50.836;4.430;2023-08-21T15:25:25;101645.94;;;29.46;35.58
27980;BME280;15315;50.836;4.430;2023-08-21T15:35:25;101637.72;;;30.12;34.32
27980;BME280;15315;50.836;4.430;2023-08-21T15:45:26;101628.53;;;30.11;34.28
27980;BME280;15315;50.836;4.430;2023-08-21T15:55:27;101628.94;;;29.82;34.61
27980;BME280;15315;50.836;4.430;2023-08-21T16:05:27;101611.81;;;29.85;35.36
27980;BME280;15315;50.836;4.430;2023-08-21T16:15:27;101593.84;;;30.01;35.53
27980;BME280;15315;50.836;4.430;2023-08-21T16:25:27;101588.69;;;30.24;35.78
27980;BME280;15315;50.836;4.430;2023-08-21T16:35:28;101589.78;;;34.98;31.86
27980;BME280;15315;50.836;4.430;2023-08-21T16:45:28;101593.75;;;37.93;27.60
27980;BME280;15315;50.836;4.430;2023-08-21T16:55:30;101590.16;;;39.69;27.08
27980;BME280;15315;50.836;4.430;2023-08-21T17:05:30;101588.50;;;38.91;25.00
27980;BME280;15315;50.836;4.430;2023-08-21T17:15:30;101590.84;;;39.09;26.02
27980;BME280;15315;50.836;4.430;2023-08-21T17:25:31;101590.97;;;37.40;26.66
27980;BME280;15315;50.836;4.430;2023-08-21T17:35:31;101587.13;;;35.93;27.50
27980;BME280;15315;50.836;4.430;2023-08-21T17:45:31;101581.09;;;34.36;29.06
27980;BME280;15315;50.836;4.430;2023-08-21T17:55:33;101572.19;;;33.34;29.91
27980;BME280;15315;50.836;4.430;2023-08-21T18:05:34;101579.13;;;32.22;31.11
27980;BME280;15315;50.836;4.430;2023-08-21T18:15:34;101574.16;;;31.99;31.34
27980;BME280;15315;50.836;4.430;2023-08-21T18:25:34;101564.69;;;31.82;32.22
27980;BME280;15315;50.836;4.430;2023-08-21T18:35:35;101567.56;;;31.69;32.28
27980;BME280;15315;50.836;4.430;2023-08-21T18:45:37;101565.78;;;31.44;33.56
27980;BME280;15315;50.836;4.430;2023-08-21T18:55:38;101585.41;;;31.24;34.35
27980;BME280;15315;50.836;4.430;2023-08-21T19:05:38;101585.06;;;31.01;35.01
27980;BME280;15315;50.836;4.430;2023-08-21T19:15:38;101593.75;;;30.73;37.04
27980;BME280;15315;50.836;4.430;2023-08-21T19:25:39;101612.69;;;30.25;38.41
27980;BME280;15315;50.836;4.430;2023-08-21T19:35:39;101619.41;;;28.96;41.91
27980;BME280;15315;50.836;4.430;2023-08-21T19:45:41;101625.59;;;28.92;43.54
27980;BME280;15315;50.836;4.430;2023-08-21T19:55:41;101628.19;;;28.59;46.67
27980;BME280;15315;50.836;4.430;2023-08-21T20:05:41;101627.06;;;28.19;48.70
27980;BME280;15315;50.836;4.430;2023-08-21T20:15:41;101631.91;;;28.17;49.80
27980;BME280;15315;50.836;4.430;2023-08-21T20:25:45;101618.47;;;27.93;51.31
27980;BME280;15315;50.836;4.430;2023-08-21T20:35:45;101614.50;;;28.30;49.51
27980;BME280;15315;50.836;4.430;2023-08-21T20:45:45;101619.78;;;28.18;50.59
27980;BME280;15315;50.836;4.430;2023-08-21T20:55:45;101609.28;;;28.42;49.28
27980;BME280;15315;50.836;4.430;2023-08-21T21:05:49;101599.84;;;28.36;49.93
27980;BME280;15315;50.836;4.430;2023-08-21T21:15:49;101593.78;;;28.19;50.63
27980;BME280;15315;50.836;4.430;2023-08-21T21:25:49;101598.19;;;27.93;51.46
27980;BME280;15315;50.836;4.430;2023-08-21T21:35:49;101600.88;;;27.44;53.86
27980;BME280;15315;50.836;4.430;2023-08-21T21:45:56;101603.84;;;27.78;52.51
27980;BME280;15315;50.836;4.430;2023-08-21T21:55:59;101609.38;;;27.57;53.02
27980;BME280;15315;50.836;4.430;2023-08-21T22:06:01;101607.91;;;27.40;53.30
27980;BME280;15315;50.836;4.430;2023-08-21T22:16:01;101599.75;;;27.38;53.59
27980;BME280;15315;50.836;4.430;2023-08-21T22:26:02;101606.00;;;27.04;54.56
27980;BME280;15315;50.836;4.430;2023-08-21T22:36:02;101597.22;;;27.01;54.83
27980;BME280;15315;50.836;4.430;2023-08-21T22:46:04;101599.97;;;26.86;55.24
27980;BME280;15315;50.836;4.430;2023-08-21T22:56:05;101603.31;;;26.82;54.91
27980;BME280;15315;50.836;4.430;2023-08-21T23:06:05;101599.22;;;26.78;54.81
27980;BME280;15315;50.836;4.430;2023-08-21T23:16:06;101597.81;;;26.38;57.32
27980;BME280;15315;50.836;4.430;2023-08-21T23:26:06;101593.50;;;25.98;58.83
27980;BME280;15315;50.836;4.430;2023-08-21T23:36:06;101594.97;;;26.09;57.72
27980;BME280;15315;50.836;4.430;2023-08-21T23:46:07;101582.53;;;25.90;58.32
27980;BME280;15315;50.836;4.430;2023-08-21T23:56:07;101581.44;;;25.76;59.17
